sensor_id;sensor_type;location;lat;lon;timestamp;temperature;humidity
3408;DHT22;1717;50.240;8.406;2023-03-01T00:01:38;2.20;87.60
3408;DHT22;1717;50.240;8.406;2023-03-01T00:04:05;2.10;87.60
3408;DHT22;1717;50.240;8.406;2023-03-01T00:06:33;2.10;87.40
3408;DHT22;1717;50.240;8.406;2023-03-01T00:09:00;2.10;87.50
3408;DHT22;1717;50.240;8.406;2023-03-01T00:11:29;2.10;87.70
3408;DHT22;1717;50.240;8.406;2023-03-01T00:13:58;2.10;88.10
3408;DHT22;1717;50.240;8.406;2023-03-01T00:16:28;2.00;88.30
3408;DHT22;1717;50.240;8.406;2023-03-01T00:18:56;2.00;88.50
3408;DHT22;1717;50.240;8.406;2023-03-01T00:21:23;2.00;89.00
3408;DHT22;1717;50.240;8.406;2023-03-01T00:23:52;1.90;89.20
3408;DHT22;1717;50.240;8.406;2023-03-01T00:26:23;1.90;89.70
3408;DHT22;1717;50.240;8.406;2023-03-01T00:28:50;1.90;89.50
3408;DHT22;1717;50.240;8.406;2023-03-01T00:31:19;1.80;89.60
3408;DHT22;1717;50.240;8.406;2023-03-01T00:33:47;1.80;90.00
3408;DHT22;1717;50.240;8.406;2023-03-01T00:36:15;1.80;90.00
3408;DHT22;1717;50.240;8.406;2023-03-01T00:38:43;1.70;90.00
3408;DHT22;1717;50.240;8.406;2023-03-01T00:41:13;1.70;90.10
3408;DHT22;1717;50.240;8.406;2023-03-01T00:43:40;1.70;90.10
3408;DHT22;1717;50.240;8.406;2023-03-01T00:46:09;1.70;90.40
3408;DHT22;1717;50.240;8.406;2023-03-01T00:48:37;1.70;90.40
3408;DHT22;1717;50.240;8.406;2023-03-01T00:51:05;1.60;90.40
3408;DHT22;1717;50.240;8.406;2023-03-01T00:53:32;1.60;90.50
3408;DHT22;1717;50.240;8.406;2023-03-01T00:55:59;1.60;90.40
3408;DHT22;1717;50.240;8.406;2023-03-01T00:58:29;1.60;90.40
3408;DHT22;1717;50.240;8.406;2023-03-01T01:00:56;1.60;90.50
3408;DHT22;1717;50.240;8.406;2023-03-01T01:03:23;1.60;90.50
3408;DHT22;1717;50.240;8.406;2023-03-01T01:05:50;1.50;90.60
3408;DHT22;1717;50.240;8.406;2023-03-01T01:08:17;1.50;90.70
3408;DHT22;1717;50.240;8.406;2023-03-01T01:10:44;1.60;90.80
3408;DHT22;1717;50.240;8.406;2023-03-01T01:13:11;1.50;90.70
3408;DHT22;1717;50.240;8.406;2023-03-01T01:15:40;1.50;90.80
3408;DHT22;1717;50.240;8.406;2023-03-01T01:18:07;1.60;90.80
3408;DHT22;1717;50.240;8.406;2023-03-01T01:20:35;1.50;90.70
3408;DHT22;1717;50.240;8.406;2023-03-01T01:23:05;1.60;91.20
3408;DHT22;1717;50.240;8.406;2023-03-01T01:25:34;1.50;90.80
3408;DHT22;1717;50.240;8.406;2023-03-01T01:28:01;1.60;90.90
3408;DHT22;1717;50.240;8.406;2023-03-01T01:30:28;1.60;90.90
3408;DHT22;1717;50.240;8.406;2023-03-01T01:32:56;1.60;91.30
3408;DHT22;1717;50.240;8.406;2023-03-01T01:35:23;1.60;90.90
3408;DHT22;1717;50.240;8.406;2023-03-01T01:37:50;1.60;90.90
3408;DHT22;1717;50.240;8.406;2023-03-01T01:40:17;1.60;91.10
3408;DHT22;1717;50.240;8.406;2023-03-01T01:42:44;1.60;91.20
3408;DHT22;1717;50.240;8.406;2023-03-01T01:45:30;1.60;91.30
3408;DHT22;1717;50.240;8.406;2023-03-01T01:48:02;1.70;91.40
3408;DHT22;1717;50.240;8.406;2023-03-01T01:50:30;1.60;91.30
3408;DHT22;1717;50.240;8.406;2023-03-01T01:53:05;1.50;91.20
3408;DHT22;1717;50.240;8.406;2023-03-01T01:55:33;1.40;91.30
3408;DHT22;1717;50.240;8.406;2023-03-01T01:58:05;1.50;91.40
3408;DHT22;1717;50.240;8.406;2023-03-01T02:00:33;1.60;91.40
3408;DHT22;1717;50.240;8.406;2023-03-01T02:03:05;1.50;91.30
3408;DHT22;1717;50.240;8.406;2023-03-01T02:05:38;1.50;91.40
3408;DHT22;1717;50.240;8.406;2023-03-01T02:08:11;1.40;91.30
3408;DHT22;1717;50.240;8.406;2023-03-01T02:10:39;1.40;91.30
3408;DHT22;1717;50.240;8.406;2023-03-01T02:13:07;1.40;91.40
3408;DHT22;1717;50.240;8.406;2023-03-01T02:15:35;1.40;91.40
3408;DHT22;1717;50.240;8.406;2023-03-01T02:18:05;1.40;91.60
3408;DHT22;1717;50.240;8.406;2023-03-01T02:20:37;1.40;91.60
3408;DHT22;1717;50.240;8.406;2023-03-01T02:23:05;1.30;91.60
3408;DHT22;1717;50.240;8.406;2023-03-01T02:25:38;1.30;91.70
3408;DHT22;1717;50.240;8.406;2023-03-01T02:30:40;1.30;91.80
3408;DHT22;1717;50.240;8.406;2023-03-01T02:33:29;1.30;91.70
3408;DHT22;1717;50.240;8.406;2023-03-01T02:35:59;1.30;91.70
3408;DHT22;1717;50.240;8.406;2023-03-01T02:38:28;1.30;91.80
3408;DHT22;1717;50.240;8.406;2023-03-01T02:40:56;1.30;91.80
3408;DHT22;1717;50.240;8.406;2023-03-01T02:43:27;1.30;91.80
3408;DHT22;1717;50.240;8.406;2023-03-01T02:45:59;1.30;91.70
3408;DHT22;1717;50.240;8.406;2023-03-01T02:48:25;1.30;91.60
3408;DHT22;1717;50.240;8.406;2023-03-01T02:51:03;1.30;91.60
3408;DHT22;1717;50.240;8.406;2023-03-01T02:53:39;1.30;91.70
3408;DHT22;1717;50.240;8.406;2023-03-01T02:56:08;1.30;91.80
3408;DHT22;1717;50.240;8.406;2023-03-01T02:58:39;1.30;91.90
3408;DHT22;1717;50.240;8.406;2023-03-01T03:01:12;1.30;91.90
3408;DHT22;1717;50.240;8.406;2023-03-01T03:03:40;1.30;91.90
3408;DHT22;1717;50.240;8.406;2023-03-01T03:06:08;1.20;91.80
3408;DHT22;1717;50.240;8.406;2023-03-01T03:08:35;1.30;91.80
3408;DHT22;1717;50.240;8.406;2023-03-01T03:11:02;1.20;91.80
3408;DHT22;1717;50.240;8.406;2023-03-01T03:13:29;1.30;91.80
3408;DHT22;1717;50.240;8.406;2023-03-01T03:15:57;1.40;91.70
3408;DHT22;1717;50.240;8.406;2023-03-01T03:18:26;1.30;91.70
3408;DHT22;1717;50.240;8.406;2023-03-01T03:20:53;1.20;91.70
3408;DHT22;1717;50.240;8.406;2023-03-01T03:23:22;1.20;91.80
3408;DHT22;1717;50.240;8.406;2023-03-01T03:25:49;1.10;91.70
3408;DHT22;1717;50.240;8.406;2023-03-01T03:28:17;1.10;91.70
3408;DHT22;1717;50.240;8.406;2023-03-01T03:30:45;1.00;91.90
3408;DHT22;1717;50.240;8.406;2023-03-01T03:33:12;1.00;92.00
3408;DHT22;1717;50.240;8.406;2023-03-01T03:35:43;1.00;92.20
3408;DHT22;1717;50.240;8.406;2023-03-01T03:38:12;1.00;92.10
3408;DHT22;1717;50.240;8.406;2023-03-01T03:40:44;0.90;92.10
3408;DHT22;1717;50.240;8.406;2023-03-01T03:43:14;0.90;92.10
3408;DHT22;1717;50.240;8.406;2023-03-01T03:45:41;0.90;92.10
3408;DHT22;1717;50.240;8.406;2023-03-01T03:48:10;0.80;92.10
3408;DHT22;1717;50.240;8.406;2023-03-01T03:50:37;0.80;92.20
3408;DHT22;1717;50.240;8.406;2023-03-01T03:53:08;0.80;92.10
3408;DHT22;1717;50.240;8.406;2023-03-01T03:55:35;0.70;92.20
3408;DHT22;1717;50.240;8.406;2023-03-01T03:58:06;0.70;92.30
3408;DHT22;1717;50.240;8.406;2023-03-01T04:00:34;0.80;92.30
3408;DHT22;1717;50.240;8.406;2023-03-01T04:03:02;0.70;92.40
3408;DHT22;1717;50.240;8.406;2023-03-01T04:05:29;0.60;92.40
3408;DHT22;1717;50.240;8.406;2023-03-01T04:07:57;0.60;92.60
3408;DHT22;1717;50.240;8.406;2023-03-01T04:10:35;0.60;92.60
3408;DHT22;1717;50.240;8.406;2023-03-01T04:13:03;0.60;92.60
3408;DHT22;1717;50.240;8.406;2023-03-01T04:15:30;0.60;92.70
3408;DHT22;1717;50.240;8.406;2023-03-01T04:17:58;0.60;92.70
3408;DHT22;1717;50.240;8.406;2023-03-01T04:20:27;0.50;92.60
3408;DHT22;1717;50.240;8.406;2023-03-01T04:23:00;0.60;92.70
3408;DHT22;1717;50.240;8.406;2023-03-01T04:25:38;0.60;92.70
3408;DHT22;1717;50.240;8.406;2023-03-01T04:28:05;0.60;92.60
3408;DHT22;1717;50.240;8.406;2023-03-01T04:30:32;0.50;92.50
3408;DHT22;1717;50.240;8.406;2023-03-01T04:33:02;0.50;92.50
3408;DHT22;1717;50.240;8.406;2023-03-01T04:35:30;0.50;92.50
3408;DHT22;1717;50.240;8.406;2023-03-01T04:37:56;0.40;92.50
3408;DHT22;1717;50.240;8.406;2023-03-01T04:40:24;0.40;92.60
3408;DHT22;1717;50.240;8.406;2023-03-01T04:42:52;0.30;92.60
3408;DHT22;1717;50.240;8.406;2023-03-01T04:45:19;0.20;92.70
3408;DHT22;1717;50.240;8.406;2023-03-01T04:47:46;0.20;92.70
3408;DHT22;1717;50.240;8.406;2023-03-01T04:50:15;0.20;92.70
3408;DHT22;1717;50.240;8.406;2023-03-01T04:52:42;0.20;92.90
3408;DHT22;1717;50.240;8.406;2023-03-01T04:55:10;0.10;93.10
3408;DHT22;1717;50.240;8.406;2023-03-01T04:57:38;0.10;93.20
3408;DHT22;1717;50.240;8.406;2023-03-01T05:00:09;0.10;93.30
3408;DHT22;1717;50.240;8.406;2023-03-01T05:02:47;0.00;93.30
3408;DHT22;1717;50.240;8.406;2023-03-01T05:05:23;0.10;93.40
3408;DHT22;1717;50.240;8.406;2023-03-01T05:07:52;0.10;93.40
3408;DHT22;1717;50.240;8.406;2023-03-01T05:10:19;0.10;93.30
3408;DHT22;1717;50.240;8.406;2023-03-01T05:12:46;0.10;93.40
3408;DHT22;1717;50.240;8.406;2023-03-01T05:15:15;0.10;93.50
3408;DHT22;1717;50.240;8.406;2023-03-01T05:17:47;0.00;93.50
3408;DHT22;1717;50.240;8.406;2023-03-01T05:20:17;0.00;93.60
3408;DHT22;1717;50.240;8.406;2023-03-01T05:22:48;0.00;93.70
3408;DHT22;1717;50.240;8.406;2023-03-01T05:25:15;0.00;93.70
3408;DHT22;1717;50.240;8.406;2023-03-01T05:27:42;-0.10;93.70
3408;DHT22;1717;50.240;8.406;2023-03-01T05:30:11;0.00;93.90
3408;DHT22;1717;50.240;8.406;2023-03-01T05:32:44;-0.10;94.00
3408;DHT22;1717;50.240;8.406;2023-03-01T05:35:12;-0.10;94.10
3408;DHT22;1717;50.240;8.406;2023-03-01T05:37:41;0.00;94.40
3408;DHT22;1717;50.240;8.406;2023-03-01T05:40:09;-0.10;94.40
3408;DHT22;1717;50.240;8.406;2023-03-01T05:42:42;-0.20;94.50
3408;DHT22;1717;50.240;8.406;2023-03-01T05:45:10;-0.10;94.70
3408;DHT22;1717;50.240;8.406;2023-03-01T05:47:38;-0.10;94.70
3408;DHT22;1717;50.240;8.406;2023-03-01T05:50:11;-0.10;94.80
3408;DHT22;1717;50.240;8.406;2023-03-01T05:52:38;0.00;94.90
3408;DHT22;1717;50.240;8.406;2023-03-01T05:55:06;0.00;94.80
3408;DHT22;1717;50.240;8.406;2023-03-01T05:57:33;-0.10;94.90
3408;DHT22;1717;50.240;8.406;2023-03-01T06:00:00;0.00;95.00
3408;DHT22;1717;50.240;8.406;2023-03-01T06:02:27;0.00;95.00
3408;DHT22;1717;50.240;8.406;2023-03-01T06:04:54;0.00;95.10
3408;DHT22;1717;50.240;8.406;2023-03-01T06:07:23;0.00;95.20
3408;DHT22;1717;50.240;8.406;2023-03-01T06:09:49;-0.10;95.10
3408;DHT22;1717;50.240;8.406;2023-03-01T06:12:16;0.00;95.20
3408;DHT22;1717;50.240;8.406;2023-03-01T06:14:45;0.10;95.10
3408;DHT22;1717;50.240;8.406;2023-03-01T06:17:12;0.20;95.00
3408;DHT22;1717;50.240;8.406;2023-03-01T06:19:39;0.20;94.80
3408;DHT22;1717;50.240;8.406;2023-03-01T06:22:06;0.20;94.80
3408;DHT22;1717;50.240;8.406;2023-03-01T06:24:35;0.30;94.70
3408;DHT22;1717;50.240;8.406;2023-03-01T06:27:02;0.30;94.50
3408;DHT22;1717;50.240;8.406;2023-03-01T06:29:28;0.40;94.40
3408;DHT22;1717;50.240;8.406;2023-03-01T06:31:55;0.50;94.30
3408;DHT22;1717;50.240;8.406;2023-03-01T06:34:22;0.50;94.20
3408;DHT22;1717;50.240;8.406;2023-03-01T06:36:49;0.50;94.10
3408;DHT22;1717;50.240;8.406;2023-03-01T06:39:16;0.60;94.20
3408;DHT22;1717;50.240;8.406;2023-03-01T06:41:44;0.60;94.00
3408;DHT22;1717;50.240;8.406;2023-03-01T06:44:11;0.60;93.80
3408;DHT22;1717;50.240;8.406;2023-03-01T06:46:39;0.70;93.70
3408;DHT22;1717;50.240;8.406;2023-03-01T06:49:06;0.70;93.70
3408;DHT22;1717;50.240;8.406;2023-03-01T06:51:35;0.80;93.70
3408;DHT22;1717;50.240;8.406;2023-03-01T06:54:03;0.70;93.50
3408;DHT22;1717;50.240;8.406;2023-03-01T06:56:30;0.80;93.60
3408;DHT22;1717;50.240;8.406;2023-03-01T06:58:58;0.80;93.60
3408;DHT22;1717;50.240;8.406;2023-03-01T07:01:25;0.80;93.50
3408;DHT22;1717;50.240;8.406;2023-03-01T07:03:52;0.90;93.40
3408;DHT22;1717;50.240;8.406;2023-03-01T07:06:19;0.80;93.30
3408;DHT22;1717;50.240;8.406;2023-03-01T07:08:45;0.90;93.40
3408;DHT22;1717;50.240;8.406;2023-03-01T07:11:13;0.80;93.40
3408;DHT22;1717;50.240;8.406;2023-03-01T07:13:40;0.90;93.60
3408;DHT22;1717;50.240;8.406;2023-03-01T07:16:08;0.80;93.60
3408;DHT22;1717;50.240;8.406;2023-03-01T07:18:35;0.80;93.80
3408;DHT22;1717;50.240;8.406;2023-03-01T07:21:05;0.70;93.90
3408;DHT22;1717;50.240;8.406;2023-03-01T07:23:32;0.70;94.00
3408;DHT22;1717;50.240;8.406;2023-03-01T07:25:59;0.70;94.10
3408;DHT22;1717;50.240;8.406;2023-03-01T07:28:27;0.80;94.20
3408;DHT22;1717;50.240;8.406;2023-03-01T07:30:54;0.70;94.30
3408;DHT22;1717;50.240;8.406;2023-03-01T07:33:22;0.70;94.50
3408;DHT22;1717;50.240;8.406;2023-03-01T07:35:56;0.70;94.60
3408;DHT22;1717;50.240;8.406;2023-03-01T07:38:24;0.80;94.80
3408;DHT22;1717;50.240;8.406;2023-03-01T07:40:51;0.80;94.80
3408;DHT22;1717;50.240;8.406;2023-03-01T07:43:17;0.80;94.80
3408;DHT22;1717;50.240;8.406;2023-03-01T07:45:44;0.80;94.80
3408;DHT22;1717;50.240;8.406;2023-03-01T07:48:11;0.80;94.90
3408;DHT22;1717;50.240;8.406;2023-03-01T07:50:39;0.80;94.90
3408;DHT22;1717;50.240;8.406;2023-03-01T07:53:06;0.90;95.00
3408;DHT22;1717;50.240;8.406;2023-03-01T07:55:34;0.90;94.90
3408;DHT22;1717;50.240;8.406;2023-03-01T07:58:01;1.00;94.80
3408;DHT22;1717;50.240;8.406;2023-03-01T08:00:27;1.00;94.70
3408;DHT22;1717;50.240;8.406;2023-03-01T08:02:54;1.00;94.60
3408;DHT22;1717;50.240;8.406;2023-03-01T08:05:24;1.10;94.70
3408;DHT22;1717;50.240;8.406;2023-03-01T08:07:53;1.10;94.60
3408;DHT22;1717;50.240;8.406;2023-03-01T08:10:20;1.10;94.60
3408;DHT22;1717;50.240;8.406;2023-03-01T08:12:48;1.20;94.60
3408;DHT22;1717;50.240;8.406;2023-03-01T08:15:17;1.20;94.50
3408;DHT22;1717;50.240;8.406;2023-03-01T08:17:44;1.20;94.50
3408;DHT22;1717;50.240;8.406;2023-03-01T08:20:11;1.30;94.40
3408;DHT22;1717;50.240;8.406;2023-03-01T08:22:39;1.30;94.40
3408;DHT22;1717;50.240;8.406;2023-03-01T08:25:08;1.40;94.30
3408;DHT22;1717;50.240;8.406;2023-03-01T08:27:34;1.40;94.30
3408;DHT22;1717;50.240;8.406;2023-03-01T08:30:01;1.40;94.30
3408;DHT22;1717;50.240;8.406;2023-03-01T08:32:28;1.50;94.20
3408;DHT22;1717;50.240;8.406;2023-03-01T08:34:56;1.50;94.20
3408;DHT22;1717;50.240;8.406;2023-03-01T08:37:23;1.70;94.20
3408;DHT22;1717;50.240;8.406;2023-03-01T08:39:49;1.50;94.00
3408;DHT22;1717;50.240;8.406;2023-03-01T08:42:18;1.50;94.00
3408;DHT22;1717;50.240;8.406;2023-03-01T08:44:44;1.60;94.00
3408;DHT22;1717;50.240;8.406;2023-03-01T08:47:11;1.60;94.00
3408;DHT22;1717;50.240;8.406;2023-03-01T08:49:38;1.70;93.90
3408;DHT22;1717;50.240;8.406;2023-03-01T08:52:05;1.60;93.80
3408;DHT22;1717;50.240;8.406;2023-03-01T08:54:32;1.60;93.80
3408;DHT22;1717;50.240;8.406;2023-03-01T08:57:01;1.60;93.80
3408;DHT22;1717;50.240;8.406;2023-03-01T08:59:30;1.70;93.80
3408;DHT22;1717;50.240;8.406;2023-03-01T09:02:01;1.70;93.80
3408;DHT22;1717;50.240;8.406;2023-03-01T09:04:28;1.90;94.00
3408;DHT22;1717;50.240;8.406;2023-03-01T09:06:55;1.70;94.00
3408;DHT22;1717;50.240;8.406;2023-03-01T09:09:21;1.70;94.00
3408;DHT22;1717;50.240;8.406;2023-03-01T09:11:48;1.80;94.00
3408;DHT22;1717;50.240;8.406;2023-03-01T09:14:16;1.80;94.00
3408;DHT22;1717;50.240;8.406;2023-03-01T09:16:44;1.80;94.00
3408;DHT22;1717;50.240;8.406;2023-03-01T09:19:12;1.80;94.00
3408;DHT22;1717;50.240;8.406;2023-03-01T09:21:39;1.90;94.00
3408;DHT22;1717;50.240;8.406;2023-03-01T09:24:06;1.90;94.00
3408;DHT22;1717;50.240;8.406;2023-03-01T09:26:34;1.90;94.10
3408;DHT22;1717;50.240;8.406;2023-03-01T09:29:00;1.90;94.10
3408;DHT22;1717;50.240;8.406;2023-03-01T09:31:27;1.90;94.10
3408;DHT22;1717;50.240;8.406;2023-03-01T09:33:55;1.90;94.20
3408;DHT22;1717;50.240;8.406;2023-03-01T09:36:24;2.00;94.20
3408;DHT22;1717;50.240;8.406;2023-03-01T09:38:52;2.00;94.20
3408;DHT22;1717;50.240;8.406;2023-03-01T09:41:33;2.00;94.20
3408;DHT22;1717;50.240;8.406;2023-03-01T09:44:10;2.00;94.10
3408;DHT22;1717;50.240;8.406;2023-03-01T09:46:43;2.10;94.10
3408;DHT22;1717;50.240;8.406;2023-03-01T09:49:14;2.10;94.10
3408;DHT22;1717;50.240;8.406;2023-03-01T09:51:43;2.10;94.00
3408;DHT22;1717;50.240;8.406;2023-03-01T09:54:14;2.10;94.00
3408;DHT22;1717;50.240;8.406;2023-03-01T09:56:46;2.20;94.00
3408;DHT22;1717;50.240;8.406;2023-03-01T09:59:22;2.20;93.90
3408;DHT22;1717;50.240;8.406;2023-03-01T10:01:57;2.20;93.80
3408;DHT22;1717;50.240;8.406;2023-03-01T10:04:40;2.20;93.80
3408;DHT22;1717;50.240;8.406;2023-03-01T10:07:18;2.30;93.80
3408;DHT22;1717;50.240;8.406;2023-03-01T10:09:48;2.50;93.90
3408;DHT22;1717;50.240;8.406;2023-03-01T10:12:17;2.30;93.70
3408;DHT22;1717;50.240;8.406;2023-03-01T10:14:51;2.40;93.80
3408;DHT22;1717;50.240;8.406;2023-03-01T10:17:26;2.40;93.70
3408;DHT22;1717;50.240;8.406;2023-03-01T10:19:55;2.40;93.60
3408;DHT22;1717;50.240;8.406;2023-03-01T10:22:27;2.40;93.40
3408;DHT22;1717;50.240;8.406;2023-03-01T10:24:56;2.50;93.40
3408;DHT22;1717;50.240;8.406;2023-03-01T10:27:25;2.50;93.20
3408;DHT22;1717;50.240;8.406;2023-03-01T10:29:59;2.50;93.10
3408;DHT22;1717;50.240;8.406;2023-03-01T10:32:29;2.60;93.10
3408;DHT22;1717;50.240;8.406;2023-03-01T10:34:57;2.60;92.90
3408;DHT22;1717;50.240;8.406;2023-03-01T10:37:24;2.60;92.90
3408;DHT22;1717;50.240;8.406;2023-03-01T10:40:02;2.70;92.40
3408;DHT22;1717;50.240;8.406;2023-03-01T10:42:35;2.90;92.00
3408;DHT22;1717;50.240;8.406;2023-03-01T10:45:34;2.70;91.80
3408;DHT22;1717;50.240;8.406;2023-03-01T10:48:11;2.80;92.20
3408;DHT22;1717;50.240;8.406;2023-03-01T10:50:42;2.80;92.40
3408;DHT22;1717;50.240;8.406;2023-03-01T10:53:21;2.90;92.50
3408;DHT22;1717;50.240;8.406;2023-03-01T10:59:02;3.10;91.90
3408;DHT22;1717;50.240;8.406;2023-03-01T11:01:30;3.20;91.80
3408;DHT22;1717;50.240;8.406;2023-03-01T11:04:13;3.30;92.00
3408;DHT22;1717;50.240;8.406;2023-03-01T11:13:25;3.50;89.90
3408;DHT22;1717;50.240;8.406;2023-03-01T11:15:59;3.60;90.10
3408;DHT22;1717;50.240;8.406;2023-03-01T11:18:29;3.60;90.20
3408;DHT22;1717;50.240;8.406;2023-03-01T11:20:58;3.50;89.10
3408;DHT22;1717;50.240;8.406;2023-03-01T11:23:28;3.50;89.60
3408;DHT22;1717;50.240;8.406;2023-03-01T11:25:58;3.50;89.70
3408;DHT22;1717;50.240;8.406;2023-03-01T11:28:29;3.40;89.50
3408;DHT22;1717;50.240;8.406;2023-03-01T11:30:58;3.60;89.10
3408;DHT22;1717;50.240;8.406;2023-03-01T11:33:34;3.60;89.10
3408;DHT22;1717;50.240;8.406;2023-03-01T11:36:08;3.60;89.30
3408;DHT22;1717;50.240;8.406;2023-03-01T11:38:40;3.60;88.00
3408;DHT22;1717;50.240;8.406;2023-03-01T11:41:11;3.60;87.30
3408;DHT22;1717;50.240;8.406;2023-03-01T11:43:49;3.60;87.50
3408;DHT22;1717;50.240;8.406;2023-03-01T11:46:38;3.70;87.80
3408;DHT22;1717;50.240;8.406;2023-03-01T11:49:19;3.60;87.90
3408;DHT22;1717;50.240;8.406;2023-03-01T11:51:53;3.70;87.00
3408;DHT22;1717;50.240;8.406;2023-03-01T11:54:34;3.80;86.90
3408;DHT22;1717;50.240;8.406;2023-03-01T11:57:13;3.70;87.50
3408;DHT22;1717;50.240;8.406;2023-03-01T12:00:11;3.80;87.80
3408;DHT22;1717;50.240;8.406;2023-03-01T12:03:05;4.00;85.60
3408;DHT22;1717;50.240;8.406;2023-03-01T12:05:59;4.00;86.10
3408;DHT22;1717;50.240;8.406;2023-03-01T12:08:33;4.00;87.00
3408;DHT22;1717;50.240;8.406;2023-03-01T12:11:11;4.10;86.50
3408;DHT22;1717;50.240;8.406;2023-03-01T12:14:02;4.50;86.70
3408;DHT22;1717;50.240;8.406;2023-03-01T12:16:47;4.40;85.40
3408;DHT22;1717;50.240;8.406;2023-03-01T12:19:33;4.40;85.90
3408;DHT22;1717;50.240;8.406;2023-03-01T12:22:13;4.50;86.60
3408;DHT22;1717;50.240;8.406;2023-03-01T12:28:02;4.80;87.40
3408;DHT22;1717;50.240;8.406;2023-03-01T12:30:42;4.90;87.00
3408;DHT22;1717;50.240;8.406;2023-03-01T12:33:20;5.00;86.60
3408;DHT22;1717;50.240;8.406;2023-03-01T12:36:16;5.20;85.80
3408;DHT22;1717;50.240;8.406;2023-03-01T12:38:59;5.30;84.60
3408;DHT22;1717;50.240;8.406;2023-03-01T12:41:46;5.50;85.00
3408;DHT22;1717;50.240;8.406;2023-03-01T12:44:39;5.60;84.20
3408;DHT22;1717;50.240;8.406;2023-03-01T12:47:19;5.70;83.40
3408;DHT22;1717;50.240;8.406;2023-03-01T12:49:54;5.80;83.00
3408;DHT22;1717;50.240;8.406;2023-03-01T12:52:27;5.90;83.10
3408;DHT22;1717;50.240;8.406;2023-03-01T12:55:01;6.00;82.50
3408;DHT22;1717;50.240;8.406;2023-03-01T12:57:31;6.20;81.40
3408;DHT22;1717;50.240;8.406;2023-03-01T13:00:17;6.30;81.50
3408;DHT22;1717;50.240;8.406;2023-03-01T13:02:53;6.40;80.40
3408;DHT22;1717;50.240;8.406;2023-03-01T13:05:33;6.50;79.60
3408;DHT22;1717;50.240;8.406;2023-03-01T13:08:07;6.60;78.30
3408;DHT22;1717;50.240;8.406;2023-03-01T13:10:43;6.70;77.70
3408;DHT22;1717;50.240;8.406;2023-03-01T13:13:19;6.80;78.30
3408;DHT22;1717;50.240;8.406;2023-03-01T13:15:47;6.80;76.90
3408;DHT22;1717;50.240;8.406;2023-03-01T13:18:32;6.90;77.20
3408;DHT22;1717;50.240;8.406;2023-03-01T13:21:02;7.00;77.00
3408;DHT22;1717;50.240;8.406;2023-03-01T13:23:34;7.10;74.40
3408;DHT22;1717;50.240;8.406;2023-03-01T13:26:12;7.20;74.70
3408;DHT22;1717;50.240;8.406;2023-03-01T13:28:47;7.20;72.60
3408;DHT22;1717;50.240;8.406;2023-03-01T13:34:51;7.30;72.20
3408;DHT22;1717;50.240;8.406;2023-03-01T13:37:34;7.40;72.60
3408;DHT22;1717;50.240;8.406;2023-03-01T13:43:29;7.60;71.90
3408;DHT22;1717;50.240;8.406;2023-03-01T13:45:57;7.60;72.10
3408;DHT22;1717;50.240;8.406;2023-03-01T13:48:27;7.70;72.50
3408;DHT22;1717;50.240;8.406;2023-03-01T13:50:57;7.80;72.60
3408;DHT22;1717;50.240;8.406;2023-03-01T13:53:29;7.80;71.20
3408;DHT22;1717;50.240;8.406;2023-03-01T13:56:00;7.90;71.40
3408;DHT22;1717;50.240;8.406;2023-03-01T13:58:31;8.00;70.90
3408;DHT22;1717;50.240;8.406;2023-03-01T14:01:01;8.00;68.50
3408;DHT22;1717;50.240;8.406;2023-03-01T14:03:30;8.10;68.00
3408;DHT22;1717;50.240;8.406;2023-03-01T14:06:01;8.10;67.90
3408;DHT22;1717;50.240;8.406;2023-03-01T14:08:29;8.20;69.00
3408;DHT22;1717;50.240;8.406;2023-03-01T14:11:13;8.20;67.80
3408;DHT22;1717;50.240;8.406;2023-03-01T14:13:59;8.30;67.30
3408;DHT22;1717;50.240;8.406;2023-03-01T14:16:37;8.40;66.50
3408;DHT22;1717;50.240;8.406;2023-03-01T14:19:15;8.50;67.20
3408;DHT22;1717;50.240;8.406;2023-03-01T14:21:44;8.60;65.60
3408;DHT22;1717;50.240;8.406;2023-03-01T14:24:18;8.60;64.00
3408;DHT22;1717;50.240;8.406;2023-03-01T14:26:46;8.70;64.80
3408;DHT22;1717;50.240;8.406;2023-03-01T14:29:34;8.70;63.80
3408;DHT22;1717;50.240;8.406;2023-03-01T14:32:12;8.80;64.90
3408;DHT22;1717;50.240;8.406;2023-03-01T14:34:43;8.80;63.40
3408;DHT22;1717;50.240;8.406;2023-03-01T14:37:17;8.90;62.70
3408;DHT22;1717;50.240;8.406;2023-03-01T14:39:44;8.90;64.00
3408;DHT22;1717;50.240;8.406;2023-03-01T14:42:12;9.00;63.60
3408;DHT22;1717;50.240;8.406;2023-03-01T14:44:42;9.10;62.70
3408;DHT22;1717;50.240;8.406;2023-03-01T14:47:13;9.10;61.10
3408;DHT22;1717;50.240;8.406;2023-03-01T14:49:42;9.20;62.20
3408;DHT22;1717;50.240;8.406;2023-03-01T14:52:18;9.20;62.40
3408;DHT22;1717;50.240;8.406;2023-03-01T14:54:48;9.20;60.70
3408;DHT22;1717;50.240;8.406;2023-03-01T14:57:19;9.20;61.80
3408;DHT22;1717;50.240;8.406;2023-03-01T14:59:49;9.30;62.30
3408;DHT22;1717;50.240;8.406;2023-03-01T15:02:20;9.40;62.40
3408;DHT22;1717;50.240;8.406;2023-03-01T15:04:50;9.40;59.90
3408;DHT22;1717;50.240;8.406;2023-03-01T15:07:18;9.30;59.50
3408;DHT22;1717;50.240;8.406;2023-03-01T15:09:46;9.40;59.90
3408;DHT22;1717;50.240;8.406;2023-03-01T15:12:35;9.40;60.70
3408;DHT22;1717;50.240;8.406;2023-03-01T15:18:02;9.60;61.90
3408;DHT22;1717;50.240;8.406;2023-03-01T15:20:30;9.50;60.90
3408;DHT22;1717;50.240;8.406;2023-03-01T15:23:01;9.60;61.60
3408;DHT22;1717;50.240;8.406;2023-03-01T15:25:29;9.60;61.70
3408;DHT22;1717;50.240;8.406;2023-03-01T15:27:58;9.60;61.70
3408;DHT22;1717;50.240;8.406;2023-03-01T15:30:29;9.70;61.30
3408;DHT22;1717;50.240;8.406;2023-03-01T15:33:20;9.70;61.40
3408;DHT22;1717;50.240;8.406;2023-03-01T15:35:55;9.70;61.60
3408;DHT22;1717;50.240;8.406;2023-03-01T15:38:31;9.80;61.30
3408;DHT22;1717;50.240;8.406;2023-03-01T15:41:00;9.80;61.00
3408;DHT22;1717;50.240;8.406;2023-03-01T15:43:41;9.90;61.20
3408;DHT22;1717;50.240;8.406;2023-03-01T15:46:20;9.90;61.00
3408;DHT22;1717;50.240;8.406;2023-03-01T15:48:51;9.90;61.00
3408;DHT22;1717;50.240;8.406;2023-03-01T15:51:27;10.00;60.00
3408;DHT22;1717;50.240;8.406;2023-03-01T15:53:55;10.00;59.90
3408;DHT22;1717;50.240;8.406;2023-03-01T15:56:23;10.00;58.80
3408;DHT22;1717;50.240;8.406;2023-03-01T15:58:50;9.90;59.10
3408;DHT22;1717;50.240;8.406;2023-03-01T16:01:18;9.90;59.20
3408;DHT22;1717;50.240;8.406;2023-03-01T16:03:45;9.90;59.10
3408;DHT22;1717;50.240;8.406;2023-03-01T16:06:12;9.80;58.90
3408;DHT22;1717;50.240;8.406;2023-03-01T16:08:39;9.80;59.00
3408;DHT22;1717;50.240;8.406;2023-03-01T16:11:14;9.70;58.10
3408;DHT22;1717;50.240;8.406;2023-03-01T16:13:41;9.70;58.50
3408;DHT22;1717;50.240;8.406;2023-03-01T16:16:09;9.70;58.70
3408;DHT22;1717;50.240;8.406;2023-03-01T16:18:39;9.70;58.50
3408;DHT22;1717;50.240;8.406;2023-03-01T16:21:06;9.60;57.90
3408;DHT22;1717;50.240;8.406;2023-03-01T16:23:33;9.60;58.10
3408;DHT22;1717;50.240;8.406;2023-03-01T16:26:00;9.60;58.10
3408;DHT22;1717;50.240;8.406;2023-03-01T16:28:27;9.50;57.80
3408;DHT22;1717;50.240;8.406;2023-03-01T16:30:54;9.50;57.60
3408;DHT22;1717;50.240;8.406;2023-03-01T16:33:20;9.40;57.80
3408;DHT22;1717;50.240;8.406;2023-03-01T16:35:49;9.30;57.80
3408;DHT22;1717;50.240;8.406;2023-03-01T16:38:15;9.30;57.80
3408;DHT22;1717;50.240;8.406;2023-03-01T16:40:48;9.00;58.10
3408;DHT22;1717;50.240;8.406;2023-03-01T16:43:15;8.90;57.60
3408;DHT22;1717;50.240;8.406;2023-03-01T16:45:42;8.80;57.80
3408;DHT22;1717;50.240;8.406;2023-03-01T16:48:10;8.80;57.90
3408;DHT22;1717;50.240;8.406;2023-03-01T16:50:37;8.70;58.00
3408;DHT22;1717;50.240;8.406;2023-03-01T16:53:05;8.80;57.90
3408;DHT22;1717;50.240;8.406;2023-03-01T16:55:32;8.80;57.80
3408;DHT22;1717;50.240;8.406;2023-03-01T16:57:59;8.60;57.80
3408;DHT22;1717;50.240;8.406;2023-03-01T17:00:26;8.40;57.80
3408;DHT22;1717;50.240;8.406;2023-03-01T17:02:53;8.40;57.60
3408;DHT22;1717;50.240;8.406;2023-03-01T17:05:20;8.30;57.60